Time;durP1;ratioP1;P1;durP2;ratioP2;P2;SDS_P1;SDS_P2;PMS_P1;PMS_P2;Temp;Humidity;BMP_temperature;BMP_pressure;BME280_temperature;BME280_humidity;BME280_pressure;Samples;Min_cycle;Max_cycle;Signal;HPM_P1;HPM_P2
2023/05/22 04:00:37;;;;;;;5.53;5.03;;;18.70;76.60;;;;;;6136551;22;20379;31
2023/05/22 04:03:06;;;;;;;4.97;4.57;;;18.70;76.90;;;;;;4974907;28;20446;-75
2023/05/22 04:05:32;;;;;;;5.00;4.60;;;18.70;76.90;;;;;;4976354;28;20545;-75
2023/05/22 04:07:59;;;;;;;6.13;5.63;;;18.80;76.80;;;;;;4976452;28;20477;-75
2023/05/22 04:10:25;;;;;;;5.43;4.97;;;18.80;76.90;;;;;;4975245;28;20450;-75
2023/05/22 04:12:52;;;;;;;5.20;4.80;;;18.90;76.90;;;;;;4976779;28;20497;-75
2023/05/22 04:15:20;;;;;;;5.17;4.77;;;18.90;76.80;;;;;;4976086;28;20457;-76
2023/05/22 04:17:48;;;;;;;5.10;4.70;;;19.00;76.50;;;;;;4976505;28;20818;-75
2023/05/22 04:20:16;;;;;;;4.63;4.23;;;19.00;76.30;;;;;;4976017;28;20450;-75
2023/05/22 04:22:44;;;;;;;5.10;4.60;;;19.00;76.40;;;;;;4975597;28;20870;-75
2023/05/22 04:25:11;;;;;;;5.33;4.83;;;19.10;76.30;;;;;;4975943;28;20522;-75
2023/05/22 04:27:38;;;;;;;4.33;3.93;;;19.10;76.20;;;;;;4975501;28;21002;-75
2023/05/22 04:30:07;;;;;;;5.03;4.63;;;19.20;76.10;;;;;;4975883;28;20450;-75
2023/05/22 04:32:35;;;;;;;6.03;5.43;;;19.20;76.10;;;;;;4974544;28;20478;-75
2023/05/22 04:35:02;;;;;;;5.53;5.03;;;19.30;75.80;;;;;;4975679;28;20465;-75
2023/05/22 04:37:30;;;;;;;5.27;4.87;;;19.30;75.60;;;;;;4975703;28;20518;-75
2023/05/22 04:40:02;;;;;;;5.23;4.73;;;19.40;75.20;;;;;;4975549;28;20466;-75
2023/05/22 04:42:29;;;;;;;4.50;4.10;;;19.50;75.00;;;;;;4975504;28;20477;-75
2023/05/22 04:44:56;;;;;;;4.83;4.43;;;19.60;74.90;;;;;;4975534;28;20451;-75
2023/05/22 04:47:23;;;;;;;4.73;4.33;;;19.70;74.80;;;;;;4975400;28;20478;-75
2023/05/22 04:49:50;;;;;;;4.43;4.07;;;19.80;74.60;;;;;;4975505;28;20453;-75
2023/05/22 04:52:17;;;;;;;3.80;3.50;;;19.90;74.50;;;;;;4975349;28;20650;-75
2023/05/22 04:54:45;;;;;;;5.13;4.73;;;20.00;74.20;;;;;;4975422;28;20454;-75
2023/05/22 04:57:12;;;;;;;4.70;4.30;;;20.20;74.00;;;;;;4975355;28;20447;-75
2023/05/22 04:59:39;;;;;;;5.40;5.00;;;20.30;73.90;;;;;;4975313;28;20447;-75
2023/05/22 05:02:06;;;;;;;4.63;4.23;;;20.50;73.50;;;;;;4974910;28;20575;-75
2023/05/22 05:04:33;;;;;;;4.80;4.40;;;20.60;73.40;;;;;;4975187;28;20481;-75
2023/05/22 05:07:01;;;;;;;5.33;4.93;;;20.80;73.20;;;;;;4975100;28;20454;-75
2023/05/22 05:09:27;;;;;;;3.80;3.50;;;20.90;73.10;;;;;;4974807;28;20957;-75
2023/05/22 05:11:55;;;;;;;4.40;4.10;;;21.00;72.80;;;;;;4974679;28;20466;-75
2023/05/22 05:14:22;;;;;;;5.27;4.77;;;21.20;72.90;;;;;;4974993;28;20453;-75
2023/05/22 05:16:50;;;;;;;5.10;4.70;;;21.30;72.70;;;;;;4974971;28;20450;-75
2023/05/22 05:19:19;;;;;;;5.33;4.83;;;21.10;72.90;;;;;;4974688;28;20948;-75
2023/05/22 05:21:47;;;;;;;5.93;5.43;;;21.00;73.50;;;;;;4974646;28;21026;-75
2023/05/22 05:24:14;;;;;;;4.90;4.50;;;20.80;73.60;;;;;;4974883;28;20486;-74
2023/05/22 05:26:41;;;;;;;6.77;4.90;;;20.60;74.10;;;;;;4974859;28;20454;-75
2023/05/22 05:29:09;;;;;;;5.60;5.20;;;20.50;74.40;;;;;;4974733;28;20540;-75
2023/05/22 05:31:36;;;;;;;5.83;5.43;;;20.30;74.70;;;;;;4974477;28;20532;-75
2023/05/22 05:34:02;;;;;;;5.13;4.73;;;20.20;75.10;;;;;;4974469;28;20859;-74
2023/05/22 05:36:30;;;;;;;5.20;4.80;;;20.10;75.70;;;;;;4974383;28;20460;-75
2023/05/22 05:38:57;;;;;;;5.90;5.13;;;20.10;75.60;;;;;;4974725;28;20485;-75
2023/05/22 05:41:25;;;;;;;5.07;4.67;;;20.20;75.90;;;;;;4974631;28;20565;-75
2023/05/22 05:43:52;;;;;;;5.50;5.00;;;20.60;75.60;;;;;;4974578;28;20482;-73
2023/05/22 05:46:20;;;;;;;6.33;5.57;;;20.80;74.80;;;;;;4974509;28;20457;-74
2023/05/22 05:48:46;;;;;;;6.17;5.63;;;21.00;74.40;;;;;;4974378;28;20478;-74
2023/05/22 05:51:13;;;;;;;5.83;5.33;;;20.70;75.30;;;;;;4974328;28;20561;-74
2023/05/22 05:53:40;;;;;;;6.03;5.47;;;20.60;75.30;;;;;;4974148;28;20461;-77
2023/05/22 05:57:01;;;;;;;5.73;5.23;;;20.50;75.90;;;;;;4974477;28;20454;-78
2023/05/22 05:59:30;;;;;;;5.90;5.17;;;20.70;75.70;;;;;;4943710;28;21014;-77
2023/05/22 06:01:58;;;;;;;5.67;5.00;;;21.10;74.70;;;;;;4973843;28;20478;-78
2023/05/22 06:04:26;;;;;;;5.17;4.67;;;21.50;73.20;;;;;;4974445;28;20497;-78
2023/05/22 06:06:53;;;;;;;5.10;4.70;;;22.00;72.60;;;;;;4974365;28;20458;-78
2023/05/22 06:09:20;;;;;;;7.30;4.50;;;22.20;71.00;;;;;;4974060;28;21002;-78
2023/05/22 06:11:46;;;;;;;5.40;4.90;;;22.40;70.60;;;;;;4974483;28;20474;-78
2023/05/22 06:14:13;;;;;;;4.93;4.43;;;22.70;69.30;;;;;;4974442;28;20462;-78
2023/05/22 06:16:40;;;;;;;4.60;4.17;;;22.90;70.20;;;;;;4974524;28;20545;-78
2023/05/22 06:19:08;;;;;;;4.90;4.40;;;23.30;68.60;;;;;;4974403;28;20500;-78
2023/05/22 06:21:35;;;;;;;4.80;4.40;;;23.50;67.40;;;;;;4974362;28;20492;-78
2023/05/22 06:24:02;;;;;;;4.77;4.37;;;23.60;67.10;;;;;;4974198;28;20964;-78
2023/05/22 06:26:29;;;;;;;4.83;4.43;;;23.70;66.60;;;;;;4974333;28;20458;-74
2023/05/22 06:28:56;;;;;;;5.33;4.93;;;23.80;66.90;;;;;;4974158;28;20529;-75
2023/05/22 06:31:23;;;;;;;4.67;4.27;;;23.40;67.10;;;;;;4974045;28;20478;-74
2023/05/22 06:33:50;;;;;;;5.10;4.70;;;23.20;68.40;;;;;;4975923;28;20454;-75
2023/05/22 06:36:18;;;;;;;4.97;4.47;;;23.10;68.00;;;;;;4977891;28;20486;-73
2023/05/22 06:38:48;;;;;;;4.40;4.00;;;23.10;69.10;;;;;;4977851;28;20569;-75
2023/05/22 06:41:15;;;;;;;5.07;4.67;;;23.40;68.30;;;;;;4977776;28;20864;-75
2023/05/22 06:43:41;;;;;;;4.50;4.10;;;23.70;67.50;;;;;;4977775;28;20491;-75
2023/05/22 06:46:08;;;;;;;3.97;3.67;;;24.00;67.90;;;;;;4978096;28;20512;-75
2023/05/22 06:48:35;;;;;;;5.80;4.73;;;23.90;66.40;;;;;;4979169;28;20482;-75
2023/05/22 06:51:01;;;;;;;4.13;3.83;;;24.10;66.50;;;;;;4977498;28;20999;-75
2023/05/22 06:53:29;;;;;;;4.60;4.20;;;24.30;66.40;;;;;;4977564;28;20446;-75
2023/05/22 06:55:56;;;;;;;4.50;4.10;;;24.70;65.30;;;;;;4978610;28;20450;-75
2023/05/22 06:58:23;;;;;;;4.77;4.37;;;25.00;64.80;;;;;;4977792;28;20453;-75
2023/05/22 07:00:50;;;;;;;5.47;4.97;;;25.10;64.90;;;;;;4978161;28;20477;-76
2023/05/22 07:03:16;;;;;;;5.20;4.70;;;25.10;65.10;;;;;;4978049;28;20434;-73
2023/05/22 07:05:43;;;;;;;4.60;4.20;;;25.00;64.70;;;;;;4977585;28;20461;-77
2023/05/22 07:08:10;;;;;;;5.90;5.30;;;25.20;64.90;;;;;;4977468;28;20493;-75
2023/05/22 07:10:38;;;;;;;4.50;4.10;;;25.40;64.00;;;;;;4977463;28;20474;-75
2023/05/22 07:13:04;;;;;;;5.03;4.60;;;25.30;64.10;;;;;;4977689;28;20485;-75
2023/05/22 07:15:31;;;;;;;5.13;4.73;;;25.30;63.70;;;;;;4977455;28;20458;-75
2023/05/22 07:17:58;;;;;;;4.80;4.40;;;25.40;64.30;;;;;;4977241;28;20501;-75
2023/05/22 07:20:25;;;;;;;5.23;4.83;;;25.50;62.40;;;;;;4977245;28;20457;-75
2023/05/22 07:22:52;;;;;;;4.67;4.17;;;25.30;62.70;;;;;;4977733;28;20454;-75
2023/05/22 07:25:18;;;;;;;4.80;4.40;;;25.10;64.20;;;;;;4977328;28;20450;-75
2023/05/22 07:27:46;;;;;;;5.47;4.97;;;24.70;64.20;;;;;;4977509;28;20446;-75
2023/05/22 07:30:13;;;;;;;5.37;4.97;;;24.40;65.40;;;;;;4977150;28;20501;-75
2023/05/22 07:32:40;;;;;;;5.50;4.67;;;24.40;65.20;;;;;;4976949;28;20477;-75
2023/05/22 07:35:09;;;;;;;4.30;4.00;;;24.30;65.30;;;;;;4976963;28;20508;-75
2023/05/22 07:37:37;;;;;;;4.77;4.13;;;24.10;66.10;;;;;;4976521;28;20461;-75
2023/05/22 07:40:05;;;;;;;5.50;5.00;;;23.40;68.10;;;;;;4976830;28;20453;-75
2023/05/22 07:42:32;;;;;;;4.63;4.13;;;23.10;68.70;;;;;;4976652;28;20480;-75
2023/05/22 07:45:01;;;;;;;4.73;4.33;;;22.60;70.20;;;;;;4975393;28;20820;-75
2023/05/22 07:47:27;;;;;;;4.70;4.27;;;22.10;71.60;;;;;;4976550;28;20454;-75
2023/05/22 07:49:54;;;;;;;4.27;3.87;;;22.20;71.80;;;;;;4976511;28;20537;-75
2023/05/22 07:52:22;;;;;;;4.70;4.30;;;22.10;71.20;;;;;;4976541;28;20474;-75
2023/05/22 07:54:49;;;;;;;4.97;4.47;;;21.90;72.30;;;;;;4976128;28;20970;-75
2023/05/22 07:57:16;;;;;;;4.00;3.70;;;21.60;72.60;;;;;;4976417;28;20847;-75
2023/05/22 07:59:44;;;;;;;5.00;4.60;;;21.60;72.40;;;;;;4976196;28;20944;-76
2023/05/22 08:02:12;;;;;;;5.03;4.63;;;21.50;72.80;;;;;;4976151;28;20486;-76
2023/05/22 08:04:39;;;;;;;5.20;4.80;;;21.70;73.10;;;;;;4976523;28;20469;-75
2023/05/22 08:07:06;;;;;;;5.00;4.60;;;21.90;71.70;;;;;;4976744;28;20453;-76
2023/05/22 08:09:33;;;;;;;4.67;4.30;;;21.90;71.90;;;;;;4976575;28;20492;-75
2023/05/22 08:11:59;;;;;;;4.97;4.50;;;22.00;72.60;;;;;;4976538;28;20482;-76
2023/05/22 08:14:26;;;;;;;4.90;4.50;;;22.00;71.20;;;;;;4976114;28;20542;-76
2023/05/22 08:16:53;;;;;;;4.67;4.27;;;22.00;71.40;;;;;;4976044;28;20501;-76
2023/05/22 08:19:21;;;;;;;4.80;4.40;;;22.10;71.30;;;;;;4976004;28;20501;-76
2023/05/22 08:21:47;;;;;;;5.40;4.90;;;22.00;72.00;;;;;;4975886;28;20470;-75
2023/05/22 08:24:14;;;;;;;4.47;4.07;;;22.20;71.60;;;;;;4975938;28;20446;-76
2023/05/22 08:26:42;;;;;;;4.73;4.33;;;22.00;71.90;;;;;;4975826;28;20446;-76
2023/05/22 08:29:09;;;;;;;4.63;4.23;;;22.10;72.10;;;;;;4975431;28;20994;-75
2023/05/22 08:31:35;;;;;;;3.90;3.60;;;22.40;73.00;;;;;;4975352;28;21042;-76
2023/05/22 08:34:03;;;;;;;4.17;3.80;;;22.70;71.20;;;;;;4975391;28;21026;-76
2023/05/22 08:36:32;;;;;;;4.80;4.17;;;22.90;70.70;;;;;;4975643;28;20958;-76
2023/05/22 08:39:00;;;;;;;4.80;4.40;;;23.20;69.70;;;;;;4975653;28;20457;-76
2023/05/22 08:41:26;;;;;;;5.80;4.43;;;23.60;69.90;;;;;;4975538;28;20474;-76
2023/05/22 08:43:53;;;;;;;4.10;3.80;;;24.10;71.00;;;;;;4975566;28;20860;-76
2023/05/22 08:46:24;;;;;;;4.70;4.30;;;24.50;67.80;;;;;;4975221;28;20461;-75
2023/05/22 08:48:52;;;;;;;4.90;4.50;;;24.80;65.90;;;;;;4975183;28;20851;-76
2023/05/22 08:51:21;;;;;;;5.00;4.60;;;25.20;66.70;;;;;;4975386;28;20480;-76
2023/05/22 08:53:55;;;;;;;4.57;4.10;;;25.40;65.30;;;;;;4975390;28;20790;-76
2023/05/22 08:56:22;;;;;;;4.40;4.00;;;25.80;66.90;;;;;;4975220;28;20437;-76
2023/05/22 08:58:51;;;;;;;4.70;4.30;;;26.20;63.80;;;;;;4975249;28;20446;-76
2023/05/22 09:01:18;;;;;;;4.10;3.80;;;26.30;62.60;;;;;;4974947;28;20513;-75
2023/05/22 09:03:48;;;;;;;4.67;4.30;;;26.60;62.10;;;;;;4974914;28;20939;-76
2023/05/22 09:06:15;;;;;;;5.20;4.80;;;26.80;61.10;;;;;;4975133;28;20458;-76
2023/05/22 09:08:42;;;;;;;4.33;3.93;;;27.00;61.50;;;;;;4975170;28;20513;-76
2023/05/22 09:11:11;;;;;;;5.13;4.63;;;27.10;61.30;;;;;;4975849;28;20525;-76
2023/05/22 09:13:39;;;;;;;4.07;3.70;;;27.40;60.10;;;;;;4975336;28;20477;-75
2023/05/22 09:16:08;;;;;;;4.50;4.10;;;27.60;57.60;;;;;;4974976;28;20454;-76
2023/05/22 09:18:36;;;;;;;4.60;4.20;;;27.50;57.10;;;;;;4974648;28;20963;-76
2023/05/22 09:21:03;;;;;;;4.20;3.90;;;27.60;56.40;;;;;;4974918;28;20506;-76
2023/05/22 09:23:30;;;;;;;4.27;3.90;;;27.60;58.10;;;;;;4974798;28;20516;-76
2023/05/22 09:25:59;;;;;;;6.17;4.60;;;27.50;58.60;;;;;;4974873;28;20455;-76
2023/05/22 09:28:27;;;;;;;4.60;4.20;;;27.60;58.20;;;;;;4974449;28;20966;-76
2023/05/22 09:30:55;;;;;;;4.57;4.17;;;27.70;57.70;;;;;;4974802;28;20474;-76
2023/05/22 09:33:23;;;;;;;4.47;4.07;;;27.70;58.40;;;;;;4975112;28;20454;-76
2023/05/22 09:35:52;;;;;;;4.13;3.73;;;27.70;58.00;;;;;;4975006;28;20454;-76
2023/05/22 09:38:21;;;;;;;4.43;4.07;;;27.60;58.40;;;;;;4974809;28;20458;-76
2023/05/22 09:40:53;;;;;;;5.03;3.87;;;27.50;58.90;;;;;;4974727;28;20470;-76
2023/05/22 09:43:21;;;;;;;4.73;4.20;;;27.50;59.10;;;;;;4974907;28;20441;-75
2023/05/22 09:45:49;;;;;;;4.43;4.03;;;27.60;59.30;;;;;;4975279;28;20862;-76
2023/05/22 09:48:17;;;;;;;5.07;4.60;;;27.70;58.70;;;;;;4975104;28;20509;-77
2023/05/22 09:50:47;;;;;;;5.13;4.17;;;27.50;59.50;;;;;;4974485;28;20489;-76
2023/05/22 09:53:17;;;;;;;4.23;3.83;;;27.20;60.80;;;;;;4974925;28;20525;-76
2023/05/22 09:55:47;;;;;;;4.50;4.20;;;27.10;60.50;;;;;;4974695;28;20454;-76
2023/05/22 09:58:19;;;;;;;7.77;3.53;;;27.30;59.10;;;;;;4974747;28;20449;-76
2023/05/22 10:00:48;;;;;;;4.70;4.30;;;27.40;59.50;;;;;;4974996;28;20573;-75
2023/05/22 10:03:19;;;;;;;4.10;3.70;;;27.50;59.90;;;;;;4975042;28;20434;-76
2023/05/22 10:05:50;;;;;;;4.07;3.77;;;27.50;59.80;;;;;;4975532;28;20454;-76
2023/05/22 10:08:20;;;;;;;4.43;3.57;;;27.70;58.60;;;;;;4976121;28;20442;-75
2023/05/22 10:10:50;;;;;;;4.90;4.17;;;28.00;59.30;;;;;;4978862;28;20576;-75
2023/05/22 10:13:17;;;;;;;3.73;3.43;;;28.00;60.20;;;;;;4979378;28;20485;-74
2023/05/22 10:15:44;;;;;;;4.10;3.70;;;28.20;56.10;;;;;;4978725;28;20448;-75
2023/05/22 10:18:11;;;;;;;5.40;4.70;;;28.20;59.10;;;;;;4978776;28;20481;-75
2023/05/22 10:20:39;;;;;;;4.63;4.10;;;28.40;56.30;;;;;;4978414;28;20525;-75
2023/05/22 10:23:07;;;;;;;4.90;4.50;;;28.40;56.40;;;;;;4978427;28;20454;-76
2023/05/22 10:25:35;;;;;;;4.60;4.07;;;28.40;56.60;;;;;;4978422;28;20454;-75
2023/05/22 10:28:02;;;;;;;4.97;4.40;;;28.60;57.80;;;;;;4978551;28;20461;-75
2023/05/22 10:30:36;;;;;;;5.27;4.77;;;28.30;58.10;;;;;;4978239;28;20486;-76
2023/05/22 10:33:10;;;;;;;4.50;4.20;;;28.40;56.00;;;;;;4978261;28;20440;-76
2023/05/22 10:35:43;;;;;;;4.03;3.73;;;28.60;56.10;;;;;;4978147;28;20438;-75
2023/05/22 10:38:27;;;;;;;4.23;3.93;;;28.40;55.50;;;;;;4977684;28;20522;-75
2023/05/22 10:40:55;;;;;;;3.80;3.50;;;28.40;54.10;;;;;;4977486;28;20990;-76
2023/05/22 10:43:22;;;;;;;4.20;3.80;;;28.40;54.60;;;;;;4978189;28;20453;-75
2023/05/22 10:45:49;;;;;;;4.53;4.13;;;28.10;55.10;;;;;;4977812;28;20457;-76
2023/05/22 10:48:21;;;;;;;4.00;3.70;;;28.10;56.80;;;;;;4977741;28;20446;-75
2023/05/22 10:50:52;;;;;;;4.30;3.90;;;28.00;55.50;;;;;;4977671;28;20580;-75
2023/05/22 10:53:24;;;;;;;4.07;3.67;;;28.30;56.50;;;;;;4977303;28;20976;-75
2023/05/22 10:55:52;;;;;;;4.60;3.70;;;28.50;56.00;;;;;;4977506;28;20430;-75
2023/05/22 10:58:26;;;;;;;5.07;4.57;;;28.40;55.90;;;;;;4977661;28;20457;-74
2023/05/22 11:01:09;;;;;;;4.33;3.93;;;28.60;54.50;;;;;;4979889;28;21042;-76
2023/05/22 11:03:52;;;;;;;4.10;3.80;;;28.70;55.10;;;;;;4991191;28;20434;-76
2023/05/22 11:06:40;;;;;;;4.43;3.90;;;28.70;55.60;;;;;;4991019;28;20524;-76
2023/05/22 11:09:26;;;;;;;4.30;3.90;;;28.70;55.80;;;;;;4991223;28;20462;-78
2023/05/22 11:12:12;;;;;;;4.30;3.93;;;28.70;55.70;;;;;;4990792;28;20462;-76
2023/05/22 11:14:39;;;;;;;4.97;4.57;;;28.90;55.10;;;;;;4991155;28;20434;-76
2023/05/22 11:17:06;;;;;;;4.40;4.00;;;29.00;56.40;;;;;;4990990;28;20446;-77
2023/05/22 11:19:33;;;;;;;4.17;3.77;;;29.20;56.00;;;;;;4990845;28;20798;-76
2023/05/22 11:22:05;;;;;;;5.73;5.23;;;29.20;55.60;;;;;;4990373;28;20474;-76
2023/05/22 11:24:33;;;;;;;4.50;4.10;;;29.40;56.80;;;;;;4990016;28;20501;-76
2023/05/22 11:27:07;;;;;;;4.53;4.17;;;29.50;56.20;;;;;;4989937;28;20458;-78
2023/05/22 11:29:34;;;;;;;4.47;4.07;;;29.40;56.50;;;;;;4990553;28;20498;-77
2023/05/22 11:32:01;;;;;;;4.40;4.00;;;29.20;55.50;;;;;;4990275;28;20498;-77
2023/05/22 11:34:28;;;;;;;5.27;4.50;;;29.00;56.70;;;;;;4989625;28;20452;-74
2023/05/22 11:36:58;;;;;;;4.63;4.23;;;28.70;56.70;;;;;;4987763;28;20457;-74
2023/05/22 11:39:26;;;;;;;4.90;4.40;;;28.60;57.40;;;;;;4976812;28;20537;-74
2023/05/22 11:41:53;;;;;;;4.33;4.03;;;28.40;56.90;;;;;;4976333;28;20890;-74
2023/05/22 11:44:20;;;;;;;3.70;3.33;;;28.40;56.80;;;;;;4976388;28;20533;-74
2023/05/22 11:46:47;;;;;;;5.10;4.70;;;28.50;57.10;;;;;;4976624;28;20509;-74
2023/05/22 11:49:13;;;;;;;4.73;4.33;;;28.60;57.10;;;;;;4976492;28;20461;-74
2023/05/22 11:51:40;;;;;;;4.47;4.13;;;28.70;55.40;;;;;;4976410;28;20978;-73
2023/05/22 11:54:07;;;;;;;4.97;4.53;;;28.80;56.20;;;;;;4976969;28;20446;-74
2023/05/22 11:56:35;;;;;;;4.73;4.33;;;28.90;55.40;;;;;;4976493;28;20879;-75
2023/05/22 11:59:02;;;;;;;5.03;4.63;;;29.10;55.10;;;;;;4976095;28;21018;-75
2023/05/22 12:01:29;;;;;;;4.30;4.00;;;29.00;55.60;;;;;;4976139;28;20601;-75
2023/05/22 12:03:56;;;;;;;3.93;3.30;;;29.30;56.30;;;;;;4976329;28;20446;-75
2023/05/22 12:06:22;;;;;;;3.70;3.40;;;29.70;54.00;;;;;;4976237;28;20516;-76
2023/05/22 12:08:49;;;;;;;4.00;3.40;;;29.90;52.80;;;;;;4976217;28;20457;-76
2023/05/22 12:11:16;;;;;;;4.53;4.20;;;30.10;53.70;;;;;;4975753;28;20867;-75
2023/05/22 12:13:44;;;;;;;3.70;3.40;;;29.90;53.20;;;;;;4975831;28;20995;-76
2023/05/22 12:16:33;;;;;;;4.20;3.90;;;30.00;53.40;;;;;;4976056;28;20505;-76
2023/05/22 12:19:01;;;;;;;3.57;3.27;;;30.20;52.70;;;;;;4976057;28;20466;-75
2023/05/22 12:21:28;;;;;;;3.73;3.43;;;30.30;53.40;;;;;;4975575;28;21057;-76
2023/05/22 12:23:55;;;;;;;3.87;3.53;;;30.60;52.20;;;;;;4975650;28;20449;-76
2023/05/22 12:26:21;;;;;;;3.17;2.93;;;30.70;50.80;;;;;;4975810;28;20512;-76
2023/05/22 12:28:53;;;;;;;4.00;3.70;;;30.70;52.60;;;;;;4975517;28;21006;-76
2023/05/22 12:31:22;;;;;;;4.33;3.53;;;30.60;51.30;;;;;;4974881;28;20490;-75
2023/05/22 12:33:53;;;;;;;3.70;3.40;;;30.50;51.90;;;;;;4975754;28;20447;-76
2023/05/22 12:36:19;;;;;;;5.20;4.03;;;30.40;51.10;;;;;;4975717;28;20431;-76
2023/05/22 12:38:46;;;;;;;3.30;3.10;;;30.10;51.80;;;;;;4975323;28;20835;-76
2023/05/22 12:41:13;;;;;;;3.20;2.90;;;30.40;51.90;;;;;;4975525;28;20471;-76
2023/05/22 12:43:39;;;;;;;3.43;2.83;;;30.60;51.70;;;;;;4975574;28;20446;-76
2023/05/22 12:46:07;;;;;;;3.50;3.20;;;30.80;51.50;;;;;;4975567;28;20462;-76
2023/05/22 12:48:34;;;;;;;4.43;3.67;;;31.10;51.40;;;;;;4975453;28;20454;-76
2023/05/22 12:51:01;;;;;;;5.00;3.70;;;31.10;51.50;;;;;;4975345;28;20489;-75
2023/05/22 12:53:27;;;;;;;3.13;2.93;;;31.10;49.50;;;;;;4975345;28;20458;-76
2023/05/22 12:55:54;;;;;;;3.47;3.17;;;31.10;49.00;;;;;;4975338;28;20454;-75
2023/05/22 12:58:21;;;;;;;3.87;3.57;;;31.10;49.00;;;;;;4975191;28;20454;-75
2023/05/22 13:00:47;;;;;;;3.23;2.93;;;31.00;49.30;;;;;;4975109;28;20521;-76
2023/05/22 13:03:16;;;;;;;3.67;3.37;;;30.80;49.30;;;;;;4975265;28;20464;-76
2023/05/22 13:05:42;;;;;;;3.37;3.07;;;30.60;49.10;;;;;;4975141;28;20454;-76
2023/05/22 13:08:09;;;;;;;3.30;2.70;;;30.30;50.20;;;;;;4975054;28;20450;-75
2023/05/22 13:10:37;;;;;;;3.70;3.30;;;30.20;50.80;;;;;;4974923;28;20852;-76
2023/05/22 13:13:04;;;;;;;3.10;2.90;;;30.20;50.80;;;;;;4975051;28;20450;-76
2023/05/22 13:15:31;;;;;;;4.13;3.73;;;30.00;50.40;;;;;;4974919;28;20459;-76
2023/05/22 13:17:57;;;;;;;3.53;3.23;;;29.90;50.30;;;;;;4975402;28;20465;-76
2023/05/22 13:20:25;;;;;;;3.87;3.53;;;29.60;51.50;;;;;;4975128;28;20447;-76
2023/05/22 13:22:52;;;;;;;4.30;3.40;;;29.50;51.10;;;;;;4975141;28;20532;-76
2023/05/22 13:25:19;;;;;;;4.13;3.30;;;29.40;50.80;;;;;;4974897;28;20446;-75
2023/05/22 13:27:46;;;;;;;3.40;3.10;;;29.20;49.80;;;;;;4975029;28;20486;-75
2023/05/22 13:30:13;;;;;;;3.47;3.17;;;29.00;50.40;;;;;;4974910;28;20482;-77
2023/05/22 13:32:39;;;;;;;5.10;2.77;;;28.80;50.60;;;;;;4974945;28;21090;-76
2023/05/22 13:35:06;;;;;;;3.33;2.93;;;28.70;51.30;;;;;;4974756;28;21022;-76
2023/05/22 13:37:34;;;;;;;4.27;3.80;;;28.60;52.10;;;;;;4974852;28;20504;-76
2023/05/22 13:40:01;;;;;;;6.03;3.30;;;28.50;52.20;;;;;;4975096;28;20446;-76
2023/05/22 13:42:28;;;;;;;3.43;3.13;;;28.50;52.80;;;;;;4974739;28;20474;-75
2023/05/22 13:44:55;;;;;;;3.70;3.10;;;28.50;52.80;;;;;;4974987;28;20454;-76
2023/05/22 13:47:22;;;;;;;4.33;3.93;;;28.30;53.90;;;;;;4974881;28;20458;-75
2023/05/22 13:49:49;;;;;;;3.97;3.53;;;28.30;53.80;;;;;;4974768;28;20870;-75
2023/05/22 13:52:16;;;;;;;3.63;3.30;;;28.30;53.70;;;;;;4974896;28;20976;-76
2023/05/22 13:54:43;;;;;;;3.40;3.03;;;28.30;54.00;;;;;;4974586;28;20801;-75
2023/05/22 13:57:10;;;;;;;3.70;3.40;;;28.40;54.70;;;;;;4974793;28;20512;-75
2023/05/22 13:59:37;;;;;;;3.67;2.87;;;28.40;54.40;;;;;;4974535;28;20513;-75
2023/05/22 14:02:04;;;;;;;4.10;3.70;;;28.40;54.10;;;;;;4974486;28;21011;-75
2023/05/22 14:04:31;;;;;;;3.70;3.40;;;28.30;53.40;;;;;;4974387;28;20540;-75
2023/05/22 14:06:57;;;;;;;3.77;3.30;;;28.10;55.10;;;;;;4974933;28;20476;-75
2023/05/22 14:09:24;;;;;;;3.37;3.07;;;27.70;56.20;;;;;;4974833;28;20509;-75
2023/05/22 14:11:52;;;;;;;3.83;3.30;;;27.50;56.50;;;;;;4974772;28;20490;-74
2023/05/22 14:14:22;;;;;;;3.40;3.10;;;27.10;57.40;;;;;;4974493;28;20892;-75
2023/05/22 14:16:49;;;;;;;3.40;3.10;;;26.80;57.80;;;;;;4974285;28;20460;-75
2023/05/22 14:19:16;;;;;;;3.03;2.73;;;26.40;58.40;;;;;;4974645;28;20450;-75
2023/05/22 14:21:43;;;;;;;2.70;2.50;;;26.30;57.90;;;;;;4974414;28;20466;-74
2023/05/22 14:24:10;;;;;;;4.63;3.30;;;25.90;58.20;;;;;;4974280;28;20494;-75
2023/05/22 14:26:36;;;;;;;3.57;3.07;;;25.50;59.20;;;;;;4974321;28;20866;-75
2023/05/22 14:29:04;;;;;;;2.73;2.37;;;25.40;59.00;;;;;;4974404;28;20567;-76
2023/05/22 14:31:31;;;;;;;3.67;2.37;;;25.10;56.20;;;;;;4974660;28;20496;-76
2023/05/22 14:33:58;;;;;;;2.67;2.30;;;24.90;57.50;;;;;;4974657;28;20482;-76
2023/05/22 14:36:24;;;;;;;3.07;2.80;;;24.80;57.40;;;;;;4974838;28;20450;-74
2023/05/22 14:38:55;;;;;;;3.93;2.23;;;25.00;57.30;;;;;;4975292;28;20521;-76
2023/05/22 14:41:22;;;;;;;2.70;2.50;;;25.10;58.40;;;;;;4974012;28;20560;-75
2023/05/22 14:43:48;;;;;;;2.77;2.47;;;25.30;57.90;;;;;;4974394;28;20446;-76
2023/05/22 14:46:16;;;;;;;3.70;2.60;;;25.40;56.40;;;;;;4974358;28;20453;-76
2023/05/22 14:48:43;;;;;;;3.53;2.40;;;25.40;56.50;;;;;;4974359;28;20483;-76
2023/05/22 14:51:10;;;;;;;2.70;2.50;;;25.50;58.50;;;;;;4973969;28;20486;-76
2023/05/22 14:53:36;;;;;;;3.70;3.13;;;25.40;59.40;;;;;;4974153;28;20449;-76
2023/05/22 14:56:03;;;;;;;2.70;2.50;;;25.30;59.80;;;;;;4977652;28;20477;-76
2023/05/22 14:58:30;;;;;;;3.37;3.07;;;25.30;59.10;;;;;;4977838;28;20445;-76
2023/05/22 15:00:56;;;;;;;2.60;2.27;;;25.30;59.40;;;;;;4977534;28;20856;-75
2023/05/22 15:03:24;;;;;;;2.97;2.50;;;25.30;59.30;;;;;;4977781;28;20835;-76
2023/05/22 15:05:51;;;;;;;3.80;2.73;;;24.90;59.80;;;;;;4977711;28;20450;-76
2023/05/22 15:08:19;;;;;;;3.07;2.67;;;24.70;60.60;;;;;;4977209;28;20450;-75
2023/05/22 15:10:46;;;;;;;2.77;2.40;;;24.50;61.70;;;;;;4977443;28;20489;-76
2023/05/22 15:13:13;;;;;;;3.13;2.83;;;24.20;63.10;;;;;;4977335;28;21076;-75
2023/05/22 15:15:40;;;;;;;3.13;2.67;;;24.20;62.90;;;;;;4978144;28;20489;-77
2023/05/22 15:18:07;;;;;;;3.07;2.40;;;23.80;64.20;;;;;;4977388;28;20461;-74
2023/05/22 15:20:35;;;;;;;3.27;2.90;;;23.80;64.90;;;;;;4976939;28;20821;-76
2023/05/22 15:23:03;;;;;;;3.20;2.80;;;23.10;67.00;;;;;;4976968;28;20955;-76
2023/05/22 15:25:32;;;;;;;4.20;3.80;;;22.80;67.80;;;;;;4977412;28;20493;-76
2023/05/22 15:28:01;;;;;;;2.80;2.60;;;22.80;68.00;;;;;;4977354;28;20517;-76
2023/05/22 15:30:29;;;;;;;4.00;3.33;;;22.70;68.20;;;;;;4976867;28;20488;-75
2023/05/22 15:32:56;;;;;;;3.47;3.17;;;22.80;68.60;;;;;;4976962;28;20493;-75
2023/05/22 15:35:23;;;;;;;3.80;3.50;;;22.60;69.60;;;;;;4977141;28;20443;-75
2023/05/22 15:37:51;;;;;;;3.30;3.00;;;22.70;70.00;;;;;;4976564;28;20450;-76
2023/05/22 15:40:21;;;;;;;3.50;2.77;;;22.80;70.10;;;;;;4976634;28;20461;-74
2023/05/22 15:42:47;;;;;;;3.50;3.20;;;22.80;70.20;;;;;;4976443;28;20851;-75
2023/05/22 15:45:14;;;;;;;3.43;3.13;;;22.90;70.20;;;;;;4976661;28;20516;-75
2023/05/22 15:47:41;;;;;;;3.10;2.80;;;22.90;69.80;;;;;;4976487;28;20458;-75
2023/05/22 15:50:08;;;;;;;3.57;3.27;;;23.00;70.10;;;;;;4976523;28;20442;-75
2023/05/22 15:52:35;;;;;;;3.00;2.70;;;23.30;69.60;;;;;;4976017;28;20869;-76
2023/05/22 15:55:03;;;;;;;3.20;2.90;;;23.60;67.90;;;;;;4976129;28;20969;-75
2023/05/22 15:57:30;;;;;;;3.00;2.70;;;23.80;67.00;;;;;;4977160;28;20454;-76
2023/05/22 15:59:56;;;;;;;3.07;2.77;;;24.00;65.50;;;;;;4976333;28;20450;-75
2023/05/22 16:02:24;;;;;;;2.90;2.70;;;24.20;65.40;;;;;;4975952;28;20860;-75
2023/05/22 16:04:50;;;;;;;3.63;2.60;;;24.60;63.70;;;;;;4976033;28;20952;-75
2023/05/22 16:07:18;;;;;;;3.07;2.77;;;24.60;62.90;;;;;;4975275;28;20485;-75
2023/05/22 16:09:45;;;;;;;2.93;2.33;;;24.70;64.20;;;;;;4976405;28;20462;-75
2023/05/22 16:12:13;;;;;;;3.20;2.90;;;24.80;62.60;;;;;;4976062;28;20493;-70
2023/05/22 16:14:40;;;;;;;3.10;2.27;;;24.80;63.10;;;;;;4976765;28;20501;-72
2023/05/22 16:17:07;;;;;;;3.17;2.10;;;25.10;59.50;;;;;;4976139;28;20455;-71
2023/05/22 16:19:33;;;;;;;2.73;2.20;;;25.20;58.60;;;;;;4976103;28;20450;-71
2023/05/22 16:22:00;;;;;;;2.50;2.30;;;25.50;58.80;;;;;;4975598;28;20470;-71
2023/05/22 16:24:27;;;;;;;2.70;2.50;;;25.90;58.90;;;;;;4976026;28;20442;-70
2023/05/22 16:26:53;;;;;;;2.93;2.30;;;25.90;58.90;;;;;;4975929;28;20454;-71
2023/05/22 16:29:21;;;;;;;3.00;2.40;;;25.90;58.60;;;;;;4975843;28;20446;-72
2023/05/22 16:31:48;;;;;;;2.10;1.87;;;25.60;59.40;;;;;;4975391;28;20493;-70
2023/05/22 16:34:15;;;;;;;3.07;2.17;;;25.20;58.80;;;;;;4975482;28;20471;-71
2023/05/22 16:36:41;;;;;;;9.00;3.33;;;25.20;60.60;;;;;;4975618;28;20454;-74
2023/05/22 16:39:08;;;;;;;3.27;2.97;;;24.40;67.80;;;;;;4975866;28;20454;-72
2023/05/22 16:41:36;;;;;;;3.40;3.10;;;24.40;66.70;;;;;;4976030;28;20466;-72
2023/05/22 16:44:03;;;;;;;2.90;2.60;;;24.40;68.40;;;;;;4975796;28;20454;-72
2023/05/22 16:46:31;;;;;;;2.50;2.30;;;24.60;68.50;;;;;;4975569;28;20455;-72
2023/05/22 16:48:57;;;;;;;2.90;2.33;;;24.70;65.50;;;;;;4975556;28;20504;-72
2023/05/22 16:51:24;;;;;;;2.87;2.30;;;24.60;65.00;;;;;;4975398;28;20486;-72